Terminal Aerodrome Forecast
Issued by NWS

Home | Current Version | Previous Version | Text Only | Print | Product List | Glossary On
Versions: 1 2 3 4 5 6 7 8 9 10 11 12 13 14 15 16
000
FTAK31 PAJN 301100
TAFAYA
TAF
PAYA 301135Z 3012/3112 00000KT P6SM BCFG VCSH SCT005 SCT040 OVC080
     FM301500 VRB04KT P6SM -SHRA SCT025 OVC050
     FM310000 12006KT P6SM -SHRA SCT020 OVC040
     FM310600 VRB03KT P6SM -SHRA BKN040 OVC080
     FM310900 12006KT P6SM -SHRA OVC050
      AMD LTD TO CLD VIS AND WIND 3101/3110=

USA.gov is the U.S. government's official web portal to all federal, state and local government web resources and services.